Meteo Giornale » Osservazioni meteo Spagna » Moron De La Frontera
ore: 11:00 - Osservazioni Meteo Moron De La Frontera
Lat. 37° 9' N Lon. 5° 37' W Alt. 87 metri s.l.m.
29 °C
Sereno
Temp. 24 Ore
20 °C
39 °C
Nord
3.7 Km/h
Dew point 12 °C
Umidità 35 %
Visibilità 10 Km
Il sole sorge alle ore 07:53
Il sole tramonta alle ore 20:51
| Data e Ora | Cielo e Fenomeni | T °C | DP °C | Um. % | Pres. hPa | Vis. km | Vento km/h | |
|---|---|---|---|---|---|---|---|---|
| Oggi h: 11:00 | Sereno | 29 | 12 | 35 | 1017 | 10 | N 3.7 | |
| Oggi h: 10:30 | Sereno | 28 | 12 | 37 | 1017 | 10 | N 0 | |
| Oggi h: 10:00 | Sereno | 27 | 12 | 39 | 1017 | 10 | N 1.8 | |
| Oggi h: 09:30 | Sereno | 25 | 12 | 44 | 1017 | 10 | N 0 | |
| Oggi h: 09:00 | Sereno | 22 | 11 | 49 | 1017 | 10 | N 1.8 | |
| Oggi h: 08:30 | Sereno | 20 | 11 | 56 | 1016 | 10 | N 1.8 | |
| Oggi h: 08:00 | Sereno | 21 | 11 | 52 | 1016 | 10 | N 3.7 | |
| Oggi h: 07:30 | Sereno | 20 | 11 | 56 | 1016 | 10 | N 5.5 | |
| Oggi h: 07:00 | Sereno | 20 | 9 | 49 | 1016 | 10 | N 3.7 | |
| Oggi h: 06:30 | Sereno | 21 | 9 | 46 | 1016 | 10 | N 5.5 | |
| Oggi h: 06:00 | Sereno | 22 | 10 | 46 | 1016 | 10 | N 5.5 | |
| Oggi h: 05:30 | Sereno | 22 | 10 | 46 | 1016 | 10 | N 5.5 | |
| Oggi h: 05:00 | Sereno | 23 | 11 | 46 | 1016 | 10 | S 7.4 | |
| Oggi h: 04:30 | Sereno | 23 | 11 | 46 | 1016 | 10 | S 11.1 | |
| Oggi h: 04:00 | Sereno | 24 | 10 | 41 | 1016 | 10 | S 11.1 | |
| Oggi h: 03:30 | Sereno | 25 | 10 | 38 | 1017 | 10 | S 9.3 | |
| Oggi h: 03:00 | Sereno | 25 | 11 | 41 | 1017 | 10 | S 9.3 | |
| Oggi h: 02:30 | Sereno | 25 | 10 | 38 | 1017 | 10 | S 9.3 | |
| Oggi h: 02:00 | Sereno | 25 | 9 | 36 | 1017 | 10 | S 16.7 | |
| Oggi h: 01:30 | Sereno | 25 | 8 | 33 | 1017 | 10 | S 16.7 | |
| Oggi h: 01:00 | Sereno | 26 | 8 | 31 | 1017 | 10 | S 11.1 | |
| Oggi h: 00:30 | Sereno | 26 | 9 | 34 | 1017 | 10 | S/SO 11.1 | |
| Oggi h: 00:00 | Sereno | 27 | 9 | 32 | 1017 | 10 | S/SO 13 | |
| Ieri h: 23:30 | Sereno | 28 | 11 | 34 | 1017 | 10 | S/SO 11.1 | |
| Ieri h: 23:00 | Sereno | 29 | 11 | 32 | 1017 | 10 | SO 13 | |
| Ieri h: 22:30 | Sereno | 29 | 11 | 32 | 1016 | 10 | S/SO 13 | |
| Ieri h: 22:00 | Sereno | 30 | 12 | 33 | 1016 | 10 | S/SO 13 | |
| Ieri h: 21:30 | Sereno | 31 | 12 | 31 | 1015 | 10 | SO 13 | |
| Ieri h: 21:00 | Sereno | 32 | 13 | 31 | 1015 | 10 | O/SO 14.8 | |
| Ieri h: 20:30 | Sereno | 34 | 13 | 28 | 1015 | 10 | O/SO 20.3 | |
| Ieri h: 20:00 | Sereno | 35 | 13 | 26 | 1014 | 10 | O/SO 18.5 | |
| Ieri h: 19:30 | Sereno | 37 | 11 | 20 | 1014 | 10 | O/SO 18.5 | |
| Ieri h: 19:00 | Sereno | 37 | 11 | 20 | 1014 | 10 | O/SO 16.7 | |
| Ieri h: 18:30 | Sereno | 38 | 12 | 21 | 1014 | 10 | O/SO 16.7 | |
| Ieri h: 18:00 | Sereno | 38 | 12 | 21 | 1014 | 10 | O/NO 13 | |
| Ieri h: 17:30 | Sereno | 38 | 11 | 19 | 1014 | 10 | O/SO 13 | |
| Ieri h: 17:00 | Sereno | 39 | 11 | 18 | 1015 | 10 | O/NO 13 | |
| Ieri h: 16:30 | Sereno | 39 | 11 | 18 | 1015 | 10 | N 11.1 | |
| Ieri h: 16:00 | Sereno | 39 | 9 | 16 | 1015 | 10 | O/SO 9.3 | |
| Ieri h: 15:30 | Sereno | 38 | 8 | 16 | 1015 | 10 | N 3.7 | |
| Ieri h: 15:00 | Sereno | 38 | 10 | 18 | 1016 | 10 | SO 7.4 | |
| Ieri h: 14:30 | Sereno | 37 | 12 | 22 | 1016 | 10 | N 3.7 | |
| Ieri h: 14:00 | Sereno | 35 | 12 | 24 | 1016 | 10 | N 1.8 | |
| Ieri h: 13:30 | Sereno | 34 | 12 | 26 | 1017 | 10 | N 5.5 | |
| Ieri h: 13:00 | Sereno | 33 | 12 | 27 | 1017 | 10 | N 5.5 | |
| Ieri h: 12:30 | Sereno | 32 | 12 | 29 | 1017 | 10 | N 7.4 | |
| Ieri h: 12:00 | Sereno | 32 | 12 | 29 | 1017 | 10 | E/NE 7.4 | |



